createdAt,value
2022-10-14T00:01:14.253Z,37.67
2022-10-14T00:03:43.072Z,37.87
2022-10-14T00:06:13.867Z,38.07
2022-10-14T00:08:44.849Z,39.00
2022-10-14T00:11:16.135Z,38.43
2022-10-14T00:13:44.391Z,39.00
2022-10-14T00:16:18.806Z,39.43
2022-10-14T00:18:47.077Z,41.30
2022-10-14T00:21:15.774Z,37.80
2022-10-14T00:23:44.177Z,38.43
2022-10-14T00:26:19.097Z,38.77
2022-10-14T00:28:47.516Z,39.20
2022-10-14T00:31:16.555Z,39.03
2022-10-14T00:33:45.285Z,37.73
2022-10-14T00:36:15.228Z,37.20
2022-10-14T00:38:45.295Z,38.07
2022-10-14T00:41:14.335Z,37.77
2022-10-14T00:44:05.106Z,37.33
2022-10-14T00:46:35.240Z,37.57
2022-10-14T00:49:07.653Z,38.13
2022-10-14T00:51:37.729Z,36.93
2022-10-14T00:54:06.785Z,38.47
2022-10-14T00:56:36.178Z,39.10
2022-10-14T00:59:06.759Z,36.90
2022-10-14T01:01:35.598Z,38.07
2022-10-14T01:04:03.970Z,36.60
2022-10-14T01:06:44.019Z,38.13
2022-10-14T01:09:21.707Z,38.97
2022-10-14T01:12:27.045Z,36.97
2022-10-14T01:14:59.976Z,36.70
2022-10-14T01:17:36.884Z,37.50
2022-10-14T01:20:30.011Z,37.60
2022-10-14T01:23:14.283Z,37.23
2022-10-14T01:25:56.848Z,36.17
2022-10-14T01:28:36.683Z,37.53
2022-10-14T01:31:10.425Z,36.00
2022-10-14T01:33:41.376Z,35.70
2022-10-14T01:36:14.560Z,36.70
2022-10-14T01:38:46.341Z,39.60
2022-10-14T01:41:19.416Z,38.00
2022-10-14T01:43:50.746Z,36.00
2022-10-14T01:46:23.464Z,37.30
2022-10-14T01:48:56.367Z,36.60
2022-10-14T01:51:30.452Z,36.90
2022-10-14T01:54:03.883Z,35.67
2022-10-14T01:56:38.131Z,36.07
2022-10-14T01:59:11.390Z,36.23
2022-10-14T02:01:41.238Z,37.13
2022-10-14T02:04:16.773Z,37.53
2022-10-14T02:06:50.021Z,35.37
2022-10-14T02:09:24.551Z,37.33
2022-10-14T02:12:06.683Z,35.83
2022-10-14T02:14:40.602Z,35.13
2022-10-14T02:17:16.344Z,35.83
2022-10-14T02:19:49.917Z,35.77
2022-10-14T02:22:28.409Z,34.13
2022-10-14T02:25:00.730Z,35.53
2022-10-14T02:27:30.569Z,36.43
2022-10-14T02:30:00.729Z,35.60
2022-10-14T02:32:31.548Z,35.33
2022-10-14T02:35:00.749Z,35.37
2022-10-14T02:37:30.764Z,34.97
2022-10-14T02:40:03.828Z,35.20
2022-10-14T02:42:32.076Z,34.60
2022-10-14T02:45:02.156Z,34.17
2022-10-14T02:47:32.090Z,34.17
2022-10-14T02:50:00.357Z,36.87
2022-10-14T02:52:28.553Z,35.03
2022-10-14T02:54:56.719Z,36.50
2022-10-14T02:57:24.892Z,36.97
2022-10-14T02:59:53.046Z,35.77
2022-10-14T03:02:21.440Z,35.80
2022-10-14T03:04:51.166Z,35.27
2022-10-14T03:07:19.316Z,36.53
2022-10-14T03:09:47.539Z,36.83
2022-10-14T03:12:15.728Z,36.27
2022-10-14T03:14:44.162Z,34.87
2022-10-14T03:17:12.695Z,36.43
2022-10-14T03:19:40.863Z,36.33
2022-10-14T03:22:10.359Z,36.40
2022-10-14T03:24:38.513Z,35.67
2022-10-14T03:27:06.686Z,37.20
2022-10-14T03:29:34.819Z,35.70
2022-10-14T03:32:03.027Z,37.90
2022-10-14T03:34:31.199Z,36.50
2022-10-14T03:36:59.330Z,36.57
2022-10-14T03:39:28.854Z,36.67
2022-10-14T03:41:57.017Z,37.57
2022-10-14T03:44:25.194Z,39.03
2022-10-14T03:46:53.368Z,36.13
2022-10-14T03:49:21.515Z,37.00
2022-10-14T03:51:49.770Z,36.50
2022-10-14T03:54:18.148Z,37.53
2022-10-14T03:56:47.730Z,36.17
2022-10-14T03:59:15.872Z,35.80
2022-10-14T04:01:44.101Z,36.90
2022-10-14T04:04:12.282Z,36.83
2022-10-14T04:06:40.484Z,37.90
2022-10-14T04:09:08.710Z,35.73
2022-10-14T04:11:36.858Z,36.50
2022-10-14T04:14:06.428Z,37.43
2022-10-14T04:16:34.653Z,36.07
2022-10-14T04:19:03.088Z,37.43
2022-10-14T04:21:31.254Z,37.03
2022-10-14T04:23:59.526Z,36.93
2022-10-14T04:26:27.733Z,37.50
2022-10-14T04:28:56.405Z,37.10
2022-10-14T04:31:26.062Z,37.77
2022-10-14T04:33:54.268Z,36.73
2022-10-14T04:36:22.446Z,37.07
2022-10-14T04:38:50.628Z,36.43
2022-10-14T04:41:18.808Z,36.47
2022-10-14T04:43:46.959Z,38.23
2022-10-14T04:46:15.140Z,35.47
2022-10-14T04:48:44.654Z,35.90
2022-10-14T04:51:12.894Z,38.97
2022-10-14T04:53:41.229Z,35.93
2022-10-14T04:56:09.535Z,38.47
2022-10-14T04:58:37.704Z,37.53
2022-10-14T05:01:05.926Z,36.90
2022-10-14T05:03:34.096Z,36.90
2022-10-14T05:06:03.658Z,39.33
2022-10-14T05:08:31.939Z,39.30
2022-10-14T05:11:00.187Z,38.57
2022-10-14T05:13:28.448Z,37.93
2022-10-14T05:15:56.670Z,36.57
2022-10-14T05:18:24.818Z,37.00
2022-10-14T05:20:52.981Z,35.77
2022-10-14T05:23:22.682Z,36.83
2022-10-14T05:25:51.799Z,35.00
2022-10-14T05:28:20.384Z,34.63
2022-10-14T05:30:48.813Z,35.10
2022-10-14T05:33:17.155Z,34.33
2022-10-14T05:36:00.040Z,36.60
2022-10-14T05:38:32.028Z,34.70
2022-10-14T05:41:00.175Z,34.40
2022-10-14T05:43:32.486Z,33.40
2022-10-14T05:46:01.242Z,33.60
2022-10-14T05:48:29.434Z,33.17
2022-10-14T05:51:01.426Z,33.67
2022-10-14T05:53:32.616Z,34.73
2022-10-14T05:56:04.981Z,33.60
2022-10-14T05:58:33.790Z,34.87
2022-10-14T06:01:02.475Z,34.40
2022-10-14T06:03:30.789Z,34.90
2022-10-14T06:05:59.076Z,34.93
2022-10-14T06:08:27.833Z,33.97
2022-10-14T06:10:57.416Z,33.50
2022-10-14T06:13:26.013Z,33.47
2022-10-14T06:15:54.126Z,32.43
2022-10-14T06:18:22.265Z,34.30
2022-10-14T06:20:54.334Z,34.27
2022-10-14T06:23:22.753Z,33.07
2022-10-14T06:25:50.960Z,33.57
2022-10-14T06:28:20.929Z,32.93
2022-10-14T06:30:51.672Z,33.30
2022-10-14T06:33:20.566Z,32.63
2022-10-14T06:35:49.183Z,29.70
2022-10-14T06:38:17.380Z,28.63
2022-10-14T06:40:45.550Z,27.90
2022-10-14T06:43:13.737Z,26.77
2022-10-14T06:45:43.308Z,30.47
2022-10-14T06:48:11.573Z,30.07
2022-10-14T06:50:40.034Z,28.50
2022-10-14T06:53:08.754Z,28.10
2022-10-14T06:55:37.125Z,28.03
2022-10-14T06:58:05.480Z,27.17
2022-10-14T07:00:33.759Z,28.47
2022-10-14T07:03:03.991Z,26.07
2022-10-14T07:05:32.302Z,27.30
2022-10-14T07:10:29.541Z,29.03
2022-10-14T07:12:57.702Z,29.60
2022-10-14T07:15:25.888Z,31.03
2022-10-14T07:17:54.060Z,30.13
2022-10-14T07:20:23.670Z,29.00
2022-10-14T07:22:55.648Z,28.47
2022-10-14T07:25:23.893Z,30.00
2022-10-14T07:27:54.112Z,30.50
2022-10-14T07:30:22.658Z,32.67
2022-10-14T07:32:50.880Z,31.53
2022-10-14T07:35:20.246Z,30.00
2022-10-14T07:37:50.510Z,30.73
2022-10-14T07:40:18.766Z,29.20
2022-10-14T07:42:47.240Z,29.73
2022-10-14T07:45:17.715Z,28.60
2022-10-14T07:47:48.034Z,29.60
2022-10-14T07:50:16.235Z,29.93
2022-10-14T07:52:44.834Z,28.47
2022-10-14T07:55:14.462Z,30.60
2022-10-14T07:57:42.654Z,31.63
2022-10-14T08:00:11.508Z,29.43
2022-10-14T08:02:39.718Z,29.23
2022-10-14T08:07:56.375Z,26.40
2022-10-14T08:10:25.962Z,31.87
2022-10-14T08:12:54.155Z,31.43
2022-10-14T08:15:22.310Z,33.27
2022-10-14T08:17:50.621Z,33.50
2022-10-14T08:20:18.934Z,33.23
2022-10-14T08:22:47.246Z,32.60
2022-10-14T08:25:15.582Z,32.60
2022-10-14T08:27:45.124Z,36.60
2022-10-14T08:30:13.470Z,35.80
2022-10-14T08:32:41.646Z,34.87
2022-10-14T08:35:12.175Z,35.27
2022-10-14T08:37:40.420Z,34.73
2022-10-14T08:40:10.062Z,35.95
2022-10-14T08:42:44.908Z,32.23
2022-10-14T08:45:20.274Z,34.92
2022-10-14T08:47:48.828Z,37.20
2022-10-14T08:50:26.753Z,37.33
2022-10-14T08:53:00.625Z,40.27
2022-10-14T08:55:34.851Z,39.45
2022-10-14T08:58:11.225Z,38.30
2022-10-14T09:00:43.083Z,38.58
2022-10-14T09:03:19.447Z,40.17
2022-10-14T09:05:53.249Z,39.13
2022-10-14T09:08:28.352Z,39.13
2022-10-14T09:10:56.641Z,38.72
2022-10-14T09:13:32.591Z,42.45
2022-10-14T09:16:07.542Z,38.28
2022-10-14T09:18:41.665Z,41.83
2022-10-14T09:21:47.758Z,39.47
2022-10-14T09:24:18.119Z,39.03
2022-10-14T09:26:48.790Z,38.90
2022-10-14T09:29:25.274Z,37.53
2022-10-14T09:31:57.625Z,35.70
2022-10-14T09:34:32.348Z,37.42
2022-10-14T09:37:07.769Z,39.80
2022-10-14T09:39:40.298Z,42.60
2022-10-14T09:42:19.234Z,37.85
2022-10-14T09:45:10.167Z,37.92
2022-10-14T09:47:50.426Z,35.03
2022-10-14T09:50:25.623Z,35.03
2022-10-14T09:52:58.886Z,36.75
2022-10-14T09:55:27.348Z,36.60
2022-10-14T09:58:05.290Z,34.47
2022-10-14T10:00:37.639Z,34.95
2022-10-14T10:03:11.515Z,33.78
2022-10-14T10:05:41.786Z,35.80
2022-10-14T10:08:18.723Z,33.83
2022-10-14T10:11:03.704Z,35.42
2022-10-14T10:13:40.145Z,34.50
2022-10-14T10:16:18.294Z,34.35
2022-10-14T10:18:47.967Z,34.42
2022-10-14T10:21:20.115Z,35.40
2022-10-14T10:23:58.078Z,35.00
2022-10-14T10:26:29.534Z,36.85
2022-10-14T10:28:59.966Z,37.25
2022-10-14T10:31:53.364Z,37.63
2022-10-14T10:34:54.820Z,39.65
2022-10-14T10:37:29.263Z,39.92
2022-10-14T10:40:20.410Z,41.75
2022-10-14T10:43:00.892Z,41.13
2022-10-14T10:45:40.332Z,42.00
2022-10-14T10:48:18.484Z,41.72
2022-10-14T10:50:57.703Z,40.33
2022-10-14T10:53:42.607Z,42.08
2022-10-14T10:56:24.149Z,41.85
2022-10-14T10:59:07.278Z,40.88
2022-10-14T11:01:44.735Z,41.30
2022-10-14T11:04:31.384Z,38.42
2022-10-14T11:07:29.947Z,39.25
2022-10-14T11:10:24.590Z,40.33
2022-10-14T11:13:00.999Z,39.97
2022-10-14T11:15:43.280Z,39.47
2022-10-14T11:18:15.096Z,40.17
2022-10-14T11:21:04.468Z,43.20
2022-10-14T11:23:41.980Z,40.70
2022-10-14T11:26:30.739Z,40.83
2022-10-14T11:29:06.254Z,40.22
2022-10-14T11:31:41.765Z,38.45
2022-10-14T11:34:29.809Z,38.85
2022-10-14T11:37:08.421Z,36.78
2022-10-14T11:39:46.037Z,38.47
2022-10-14T11:42:27.909Z,37.83
2022-10-14T11:45:08.361Z,38.90
2022-10-14T11:47:40.534Z,36.75
2022-10-14T11:50:16.534Z,35.30
2022-10-14T11:52:51.262Z,36.30
2022-10-14T11:55:24.587Z,35.20
2022-10-14T11:57:56.728Z,33.75
2022-10-14T12:00:28.178Z,34.53
2022-10-14T12:03:04.010Z,35.50
2022-10-14T12:05:40.041Z,35.38
2022-10-14T12:08:17.117Z,35.08
2022-10-14T12:10:50.892Z,34.67
2022-10-14T12:13:33.414Z,34.78
2022-10-14T12:16:05.522Z,37.22
2022-10-14T12:21:18.359Z,36.45
2022-10-14T12:23:49.957Z,36.45
2022-10-14T12:26:44.099Z,36.42
2022-10-14T12:29:15.818Z,36.38
2022-10-14T12:31:50.515Z,35.53
2022-10-14T12:34:35.880Z,35.30
2022-10-14T12:37:42.938Z,35.38
2022-10-14T12:40:29.104Z,35.30
2022-10-14T12:43:16.400Z,35.97
2022-10-14T12:46:03.324Z,35.45
2022-10-14T12:48:34.688Z,34.92
2022-10-14T12:51:13.332Z,35.28
2022-10-14T12:53:51.184Z,33.47
2022-10-14T12:56:31.758Z,34.15
2022-10-14T12:59:03.244Z,34.00
2022-10-14T13:01:35.461Z,33.60
2022-10-14T13:04:08.250Z,34.08
2022-10-14T13:06:39.497Z,33.88
2022-10-14T13:09:39.960Z,35.53
2022-10-14T13:12:46.488Z,36.35
2022-10-14T13:15:36.467Z,34.60
2022-10-14T13:18:50.702Z,36.53
2022-10-14T13:21:32.271Z,35.33
2022-10-14T13:24:02.826Z,34.72
2022-10-14T13:26:39.320Z,34.08
2022-10-14T13:29:17.994Z,34.50
2022-10-14T13:31:56.726Z,35.13
2022-10-14T13:34:37.509Z,34.97
2022-10-14T13:37:30.875Z,34.80
2022-10-14T13:40:06.425Z,34.45
2022-10-14T13:42:37.816Z,33.42
2022-10-14T13:45:10.722Z,34.80
2022-10-14T13:47:43.435Z,33.45
2022-10-14T13:50:13.828Z,33.80
2022-10-14T13:52:42.797Z,31.40
2022-10-14T13:55:20.101Z,31.80
2022-10-14T13:58:13.420Z,33.67
2022-10-14T14:00:46.315Z,33.47
2022-10-14T14:03:25.417Z,32.10
2022-10-14T14:05:54.529Z,34.42
2022-10-14T14:08:39.123Z,33.53
2022-10-14T14:11:17.975Z,33.47
2022-10-14T14:14:00.427Z,33.38
2022-10-14T14:16:32.985Z,32.90
2022-10-14T14:19:08.901Z,31.38
2022-10-14T14:21:38.566Z,32.55
2022-10-14T14:24:17.698Z,33.45
2022-10-14T14:26:46.364Z,34.90
2022-10-14T14:29:18.570Z,35.42
2022-10-14T14:32:05.573Z,35.33
2022-10-14T14:34:37.294Z,35.72
2022-10-14T14:37:25.168Z,33.53
2022-10-14T14:39:58.968Z,33.47
2022-10-14T14:42:30.121Z,33.95
2022-10-14T14:45:02.403Z,35.40
2022-10-14T14:47:31.592Z,34.17
2022-10-14T14:50:29.971Z,34.28
2022-10-14T14:52:52.555Z,33.35
2022-10-14T14:55:44.050Z,33.40
2022-10-14T14:58:22.970Z,31.88
2022-10-14T15:00:54.558Z,33.72
2022-10-14T15:03:24.467Z,32.55
2022-10-14T15:05:58.657Z,31.90
2022-10-14T15:08:29.062Z,31.42
2022-10-14T15:10:58.984Z,31.55
2022-10-14T15:13:33.628Z,33.10
2022-10-14T15:16:01.798Z,31.52
2022-10-14T15:18:30.608Z,33.17
2022-10-14T15:21:16.947Z,32.65
2022-10-14T15:23:58.531Z,31.80
2022-10-14T15:26:31.762Z,32.78
2022-10-14T15:29:17.496Z,33.58
2022-10-14T15:31:47.847Z,31.80
2022-10-14T15:34:22.275Z,33.03
2022-10-14T15:36:54.213Z,32.65
2022-10-14T15:39:23.335Z,32.20
2022-10-14T15:41:52.012Z,33.13
2022-10-14T15:44:20.297Z,31.90
2022-10-14T15:47:06.273Z,33.40
2022-10-14T15:49:37.826Z,32.08
2022-10-14T15:52:07.589Z,34.08
2022-10-14T15:54:35.894Z,33.00
2022-10-14T15:57:05.733Z,32.85
2022-10-14T15:59:33.966Z,31.70
2022-10-14T16:02:02.174Z,33.55
2022-10-14T16:04:30.532Z,33.67
2022-10-14T16:06:58.738Z,32.45
2022-10-14T16:09:29.837Z,32.35
2022-10-14T16:12:00.826Z,31.60
2022-10-14T16:14:29.318Z,32.38
2022-10-14T16:16:57.636Z,33.00
2022-10-14T16:19:25.801Z,32.83
2022-10-14T16:21:53.971Z,32.72
2022-10-14T16:24:25.374Z,32.85
2022-10-14T16:26:55.373Z,32.75
2022-10-14T16:29:23.551Z,31.80
2022-10-14T16:31:52.458Z,31.92
2022-10-14T16:34:21.616Z,32.75
2022-10-14T16:36:50.640Z,32.90
2022-10-14T16:39:20.053Z,33.45
2022-10-14T16:41:48.478Z,31.88
2022-10-14T16:44:27.525Z,32.67
2022-10-14T16:47:14.400Z,31.85
2022-10-14T16:49:44.207Z,33.80
2022-10-14T16:52:12.578Z,34.92
2022-10-14T16:54:41.086Z,32.95
2022-10-14T16:57:09.915Z,32.50
2022-10-14T16:59:39.798Z,35.58
2022-10-14T17:02:11.114Z,33.33
2022-10-14T17:04:40.899Z,35.20
2022-10-14T17:07:09.149Z,34.80
2022-10-14T17:09:39.561Z,36.00
2022-10-14T17:12:12.958Z,34.90
2022-10-14T17:14:44.077Z,34.40
2022-10-14T17:17:13.132Z,34.15
2022-10-14T17:19:41.492Z,34.45
2022-10-14T17:22:09.928Z,33.90
2022-10-14T17:24:38.097Z,34.70
2022-10-14T17:27:06.233Z,35.03
2022-10-14T17:29:34.387Z,35.40
2022-10-14T17:32:03.961Z,34.83
2022-10-14T17:34:33.060Z,34.45
2022-10-14T17:37:01.276Z,35.20
2022-10-14T17:39:29.941Z,33.72
2022-10-14T17:41:58.581Z,37.75
2022-10-14T17:44:28.754Z,36.25
2022-10-14T17:46:57.205Z,38.60
2022-10-14T17:49:26.739Z,36.58
2022-10-14T17:51:54.968Z,37.47
2022-10-14T17:54:23.348Z,37.33
2022-10-14T17:56:51.573Z,37.13
2022-10-14T17:59:19.911Z,38.70
2022-10-14T18:02:04.125Z,36.88
2022-10-14T18:04:34.174Z,37.53
2022-10-14T18:07:02.434Z,37.58
2022-10-14T18:09:30.612Z,37.40
2022-10-14T18:12:14.279Z,35.55
2022-10-14T18:14:42.888Z,35.45
2022-10-14T18:17:12.482Z,38.30
2022-10-14T18:19:44.134Z,40.17
2022-10-14T18:22:14.638Z,40.50
2022-10-14T18:24:43.902Z,42.00
2022-10-14T18:27:12.425Z,42.17
2022-10-14T18:29:40.617Z,41.83
2022-10-14T18:32:08.758Z,42.42
2022-10-14T18:34:36.986Z,42.28
2022-10-14T18:37:07.048Z,43.17
2022-10-14T18:39:35.217Z,43.55
2022-10-14T18:42:03.409Z,44.00
2022-10-14T18:44:31.626Z,44.17
2022-10-14T18:46:59.918Z,45.65
2022-10-14T18:49:28.066Z,45.25
2022-10-14T18:51:56.236Z,45.28
2022-10-14T18:54:25.942Z,43.70
2022-10-14T18:56:54.882Z,44.60
2022-10-14T18:59:24.427Z,45.70
2022-10-14T19:01:53.426Z,45.03
2022-10-14T19:04:23.796Z,47.92
2022-10-14T19:06:52.025Z,45.05
2022-10-14T19:09:24.564Z,47.03
2022-10-14T19:11:54.322Z,45.58
2022-10-14T19:14:22.926Z,45.22
2022-10-14T19:16:51.389Z,45.65
2022-10-14T19:19:21.160Z,45.10
2022-10-14T19:21:54.012Z,45.13
2022-10-14T19:24:22.243Z,46.45
2022-10-14T19:26:50.473Z,47.15
2022-10-14T19:29:20.021Z,48.00
2022-10-14T19:31:50.885Z,50.17
2022-10-14T19:34:19.052Z,49.95
2022-10-14T19:36:47.245Z,50.20
2022-10-14T19:39:18.158Z,51.58
2022-10-14T19:41:47.431Z,54.47
2022-10-14T19:44:17.229Z,52.47
2022-10-14T19:46:46.985Z,54.13
2022-10-14T19:49:17.930Z,52.83
2022-10-14T19:51:46.287Z,52.40
2022-10-14T19:54:15.072Z,49.58
2022-10-14T19:56:43.455Z,49.35
2022-10-14T19:59:13.511Z,49.75
2022-10-14T20:01:41.965Z,48.28
2022-10-14T20:04:11.709Z,50.13
2022-10-14T20:06:40.387Z,50.00
2022-10-14T20:09:09.058Z,50.63
2022-10-14T20:11:37.238Z,48.92
2022-10-14T20:14:05.451Z,49.95
2022-10-14T20:16:33.751Z,49.42
2022-10-14T20:19:01.878Z,48.40
2022-10-14T20:21:31.775Z,48.88
2022-10-14T20:24:00.690Z,48.88
2022-10-14T20:26:29.272Z,51.05
2022-10-14T20:28:57.545Z,50.58
2022-10-14T20:31:26.461Z,49.73
2022-10-14T20:33:56.972Z,54.20
2022-10-14T20:36:25.262Z,51.60
2022-10-14T20:38:54.842Z,52.65
2022-10-14T20:41:24.820Z,53.70
2022-10-14T20:43:54.542Z,54.72
2022-10-14T20:46:24.663Z,53.22
2022-10-14T20:48:55.890Z,55.15
2022-10-14T20:51:24.473Z,55.17
2022-10-14T20:54:01.826Z,53.58
2022-10-14T20:56:34.109Z,52.40
2022-10-14T20:59:04.925Z,52.97
2022-10-14T21:01:33.878Z,52.45
2022-10-14T21:04:03.203Z,52.47
2022-10-14T21:06:32.377Z,53.10
2022-10-14T21:09:02.283Z,52.70
2022-10-14T21:11:30.447Z,51.20
2022-10-14T21:14:00.364Z,50.30
2022-10-14T21:16:30.677Z,51.92
2022-10-14T21:19:00.400Z,50.07
2022-10-14T21:21:31.341Z,49.63
2022-10-14T21:24:01.700Z,49.43
2022-10-14T21:26:31.235Z,49.80
2022-10-14T21:29:00.977Z,48.07
2022-10-14T21:31:29.273Z,47.83
2022-10-14T21:34:02.701Z,48.27
2022-10-14T21:36:33.728Z,48.83
2022-10-14T21:39:07.449Z,47.73
2022-10-14T21:41:35.926Z,47.73
2022-10-14T21:44:04.644Z,48.17
2022-10-14T21:46:33.458Z,46.27
2022-10-14T21:49:01.641Z,45.67
2022-10-14T21:51:31.417Z,47.40
2022-10-14T21:54:00.258Z,48.77
2022-10-14T21:56:30.071Z,45.73
2022-10-14T21:58:58.420Z,46.90
2022-10-14T22:01:29.083Z,47.83
2022-10-14T22:03:59.221Z,47.47
2022-10-14T22:06:28.637Z,48.30
2022-10-14T22:08:58.502Z,50.47
2022-10-14T22:11:30.326Z,49.60
2022-10-14T22:14:00.236Z,49.27
2022-10-14T22:16:29.975Z,49.80
2022-10-14T22:19:00.225Z,47.97
2022-10-14T22:21:30.250Z,49.07
2022-10-14T22:23:59.212Z,48.20
2022-10-14T22:26:30.017Z,49.10
2022-10-14T22:29:00.139Z,49.37
2022-10-14T22:31:28.922Z,47.83
2022-10-14T22:33:57.170Z,49.77
2022-10-14T22:36:28.200Z,48.23
2022-10-14T22:38:57.708Z,49.53
2022-10-14T22:41:30.992Z,50.17
2022-10-14T22:44:05.071Z,49.37
2022-10-14T22:46:36.040Z,49.63
2022-10-14T22:49:04.912Z,49.80
2022-10-14T22:51:34.743Z,51.63
2022-10-14T22:54:03.360Z,50.63
2022-10-14T22:56:32.535Z,51.17
2022-10-14T22:59:02.397Z,51.93
2022-10-14T23:01:32.253Z,50.40
2022-10-14T23:04:01.167Z,50.73
2022-10-14T23:06:30.553Z,48.40
2022-10-14T23:09:00.410Z,50.97
2022-10-14T23:11:30.160Z,51.30
2022-10-14T23:14:01.432Z,51.17
2022-10-14T23:16:34.632Z,50.90
2022-10-14T23:19:03.194Z,49.30
2022-10-14T23:21:32.900Z,50.93
2022-10-14T23:24:03.078Z,50.17
2022-10-14T23:26:34.509Z,50.47
2022-10-14T23:29:06.316Z,49.47
2022-10-14T23:31:37.539Z,50.43
2022-10-14T23:34:08.358Z,49.87
2022-10-14T23:36:37.277Z,51.23
2022-10-14T23:39:06.124Z,50.07
2022-10-14T23:41:34.610Z,50.63
2022-10-14T23:44:02.984Z,51.30
2022-10-14T23:46:31.246Z,51.77
2022-10-14T23:49:07.975Z,49.77
2022-10-14T23:51:49.135Z,48.77
2022-10-14T23:54:17.565Z,48.83
2022-10-14T23:56:46.095Z,50.00
2022-10-14T23:59:14.449Z,49.27
